sensor_id;sensor_type;location;lat;lon;timestamp;P1;durP1;ratioP1;P2;durP2;ratioP2
83513;SDS011;73447;53.262;10.424;2024-02-21T00:00:51;32.78;;;13.13;;
83513;SDS011;73447;53.262;10.424;2024-02-21T00:03:17;30.55;;;13.15;;
83513;SDS011;73447;53.262;10.424;2024-02-21T00:05:42;29.00;;;12.43;;
83513;SDS011;73447;53.262;10.424;2024-02-21T00:08:07;28.27;;;12.40;;
83513;SDS011;73447;53.262;10.424;2024-02-21T00:10:33;32.33;;;13.27;;
83513;SDS011;73447;53.262;10.424;2024-02-21T00:12:59;29.52;;;13.27;;
83513;SDS011;73447;53.262;10.424;2024-02-21T00:15:24;28.95;;;12.00;;
83513;SDS011;73447;53.262;10.424;2024-02-21T00:17:50;30.60;;;11.18;;
83513;SDS011;73447;53.262;10.424;2024-02-21T00:20:16;26.08;;;12.02;;
83513;SDS011;73447;53.262;10.424;2024-02-21T00:22:42;27.40;;;11.70;;
83513;SDS011;73447;53.262;10.424;2024-02-21T00:25:08;29.73;;;12.38;;
83513;SDS011;73447;53.262;10.424;2024-02-21T00:27:33;27.20;;;12.45;;
83513;SDS011;73447;53.262;10.424;2024-02-21T00:29:58;28.50;;;13.95;;
83513;SDS011;73447;53.262;10.424;2024-02-21T00:32:24;29.77;;;12.90;;
83513;SDS011;73447;53.262;10.424;2024-02-21T00:34:49;29.67;;;11.10;;
83513;SDS011;73447;53.262;10.424;2024-02-21T00:37:15;25.88;;;11.50;;
83513;SDS011;73447;53.262;10.424;2024-02-21T00:39:40;25.60;;;11.65;;
83513;SDS011;73447;53.262;10.424;2024-02-21T00:42:07;30.10;;;13.30;;
83513;SDS011;73447;53.262;10.424;2024-02-21T00:44:32;31.25;;;12.25;;
83513;SDS011;73447;53.262;10.424;2024-02-21T00:46:58;25.73;;;12.40;;
83513;SDS011;73447;53.262;10.424;2024-02-21T00:49:23;28.00;;;13.05;;
83513;SDS011;73447;53.262;10.424;2024-02-21T00:51:49;29.00;;;11.98;;
83513;SDS011;73447;53.262;10.424;2024-02-21T00:54:14;29.35;;;13.10;;
83513;SDS011;73447;53.262;10.424;2024-02-21T00:56:39;28.85;;;11.73;;
83513;SDS011;73447;53.262;10.424;2024-02-21T00:59:05;27.00;;;11.63;;
83513;SDS011;73447;53.262;10.424;2024-02-21T01:01:30;23.90;;;11.90;;
83513;SDS011;73447;53.262;10.424;2024-02-21T01:03:55;23.98;;;11.43;;
83513;SDS011;73447;53.262;10.424;2024-02-21T01:06:21;28.65;;;12.15;;
83513;SDS011;73447;53.262;10.424;2024-02-21T01:08:47;30.85;;;13.25;;
83513;SDS011;73447;53.262;10.424;2024-02-21T01:11:13;22.70;;;11.05;;
83513;SDS011;73447;53.262;10.424;2024-02-21T01:13:39;23.00;;;12.32;;
83513;SDS011;73447;53.262;10.424;2024-02-21T01:16:05;24.48;;;12.70;;
83513;SDS011;73447;53.262;10.424;2024-02-21T01:18:31;24.60;;;11.50;;
83513;SDS011;73447;53.262;10.424;2024-02-21T01:20:57;29.30;;;12.50;;
83513;SDS011;73447;53.262;10.424;2024-02-21T01:23:23;25.48;;;11.95;;
83513;SDS011;73447;53.262;10.424;2024-02-21T01:25:48;26.08;;;11.32;;
83513;SDS011;73447;53.262;10.424;2024-02-21T01:28:13;24.40;;;13.30;;
83513;SDS011;73447;53.262;10.424;2024-02-21T01:30:39;27.23;;;12.55;;
83513;SDS011;73447;53.262;10.424;2024-02-21T01:33:04;27.00;;;13.63;;
83513;SDS011;73447;53.262;10.424;2024-02-21T01:35:29;28.80;;;12.77;;
83513;SDS011;73447;53.262;10.424;2024-02-21T01:37:55;31.02;;;13.38;;
83513;SDS011;73447;53.262;10.424;2024-02-21T01:40:20;26.95;;;12.40;;
83513;SDS011;73447;53.262;10.424;2024-02-21T01:42:45;26.95;;;12.23;;
83513;SDS011;73447;53.262;10.424;2024-02-21T01:45:12;28.23;;;12.77;;
83513;SDS011;73447;53.262;10.424;2024-02-21T01:47:38;24.10;;;13.25;;
83513;SDS011;73447;53.262;10.424;2024-02-21T01:50:03;34.53;;;13.48;;
83513;SDS011;73447;53.262;10.424;2024-02-21T01:52:29;28.23;;;12.30;;
83513;SDS011;73447;53.262;10.424;2024-02-21T01:54:56;30.70;;;14.55;;
83513;SDS011;73447;53.262;10.424;2024-02-21T01:57:22;28.48;;;13.00;;
83513;SDS011;73447;53.262;10.424;2024-02-21T01:59:48;28.33;;;13.05;;
83513;SDS011;73447;53.262;10.424;2024-02-21T02:02:14;28.50;;;13.75;;
83513;SDS011;73447;53.262;10.424;2024-02-21T02:04:42;31.02;;;13.52;;
83513;SDS011;73447;53.262;10.424;2024-02-21T02:07:08;32.60;;;14.75;;
83513;SDS011;73447;53.262;10.424;2024-02-21T02:09:33;36.63;;;15.20;;
83513;SDS011;73447;53.262;10.424;2024-02-21T02:11:59;36.67;;;14.70;;
83513;SDS011;73447;53.262;10.424;2024-02-21T02:14:25;32.85;;;15.23;;
83513;SDS011;73447;53.262;10.424;2024-02-21T02:16:50;30.30;;;14.30;;
83513;SDS011;73447;53.262;10.424;2024-02-21T02:19:16;29.77;;;14.73;;
83513;SDS011;73447;53.262;10.424;2024-02-21T02:21:42;34.47;;;15.05;;
83513;SDS011;73447;53.262;10.424;2024-02-21T02:24:13;36.28;;;15.73;;
83513;SDS011;73447;53.262;10.424;2024-02-21T02:26:39;33.63;;;15.20;;
83513;SDS011;73447;53.262;10.424;2024-02-21T02:29:04;32.85;;;15.10;;
83513;SDS011;73447;53.262;10.424;2024-02-21T02:31:30;33.40;;;14.85;;
83513;SDS011;73447;53.262;10.424;2024-02-21T02:33:56;33.33;;;15.18;;
83513;SDS011;73447;53.262;10.424;2024-02-21T02:36:21;29.17;;;14.90;;
83513;SDS011;73447;53.262;10.424;2024-02-21T02:38:46;30.63;;;14.43;;
83513;SDS011;73447;53.262;10.424;2024-02-21T02:41:12;31.05;;;14.60;;
83513;SDS011;73447;53.262;10.424;2024-02-21T02:43:37;27.33;;;14.02;;
83513;SDS011;73447;53.262;10.424;2024-02-21T02:46:03;28.67;;;14.52;;
83513;SDS011;73447;53.262;10.424;2024-02-21T02:48:29;30.98;;;13.57;;
83513;SDS011;73447;53.262;10.424;2024-02-21T02:50:54;33.58;;;14.48;;
83513;SDS011;73447;53.262;10.424;2024-02-21T02:53:20;27.00;;;13.80;;
83513;SDS011;73447;53.262;10.424;2024-02-21T02:55:45;28.40;;;13.52;;
83513;SDS011;73447;53.262;10.424;2024-02-21T02:58:11;31.52;;;14.20;;
83513;SDS011;73447;53.262;10.424;2024-02-21T03:00:37;31.15;;;15.73;;
83513;SDS011;73447;53.262;10.424;2024-02-21T03:03:04;29.85;;;14.40;;
83513;SDS011;73447;53.262;10.424;2024-02-21T03:05:29;33.45;;;14.93;;
83513;SDS011;73447;53.262;10.424;2024-02-21T03:07:55;32.25;;;16.20;;
83513;SDS011;73447;53.262;10.424;2024-02-21T03:10:20;32.42;;;14.55;;
83513;SDS011;73447;53.262;10.424;2024-02-21T03:12:46;29.17;;;13.65;;
83513;SDS011;73447;53.262;10.424;2024-02-21T03:15:11;33.17;;;15.05;;
83513;SDS011;73447;53.262;10.424;2024-02-21T03:17:38;35.97;;;15.18;;
83513;SDS011;73447;53.262;10.424;2024-02-21T03:20:04;31.25;;;15.18;;
83513;SDS011;73447;53.262;10.424;2024-02-21T03:22:30;31.40;;;14.90;;
83513;SDS011;73447;53.262;10.424;2024-02-21T03:24:57;36.25;;;15.80;;
83513;SDS011;73447;53.262;10.424;2024-02-21T03:27:22;37.88;;;15.73;;
83513;SDS011;73447;53.262;10.424;2024-02-21T03:29:48;33.03;;;15.63;;
83513;SDS011;73447;53.262;10.424;2024-02-21T03:32:13;39.90;;;16.60;;
83513;SDS011;73447;53.262;10.424;2024-02-21T03:34:38;33.90;;;16.35;;
83513;SDS011;73447;53.262;10.424;2024-02-21T03:37:04;35.65;;;15.07;;
83513;SDS011;73447;53.262;10.424;2024-02-21T03:39:33;40.08;;;16.88;;
83513;SDS011;73447;53.262;10.424;2024-02-21T03:41:58;34.90;;;15.23;;
83513;SDS011;73447;53.262;10.424;2024-02-21T03:44:30;35.05;;;15.25;;
83513;SDS011;73447;53.262;10.424;2024-02-21T03:46:56;30.08;;;14.65;;
83513;SDS011;73447;53.262;10.424;2024-02-21T03:49:21;34.95;;;15.85;;
83513;SDS011;73447;53.262;10.424;2024-02-21T03:51:47;29.27;;;14.23;;
83513;SDS011;73447;53.262;10.424;2024-02-21T03:54:12;30.98;;;15.57;;
83513;SDS011;73447;53.262;10.424;2024-02-21T03:56:38;31.88;;;15.05;;
83513;SDS011;73447;53.262;10.424;2024-02-21T03:59:07;34.00;;;14.95;;
83513;SDS011;73447;53.262;10.424;2024-02-21T04:01:33;28.55;;;14.35;;
83513;SDS011;73447;53.262;10.424;2024-02-21T04:03:59;36.33;;;15.90;;
83513;SDS011;73447;53.262;10.424;2024-02-21T04:06:24;31.33;;;14.90;;
83513;SDS011;73447;53.262;10.424;2024-02-21T04:08:50;35.67;;;14.82;;
83513;SDS011;73447;53.262;10.424;2024-02-21T04:11:15;27.60;;;13.95;;
83513;SDS011;73447;53.262;10.424;2024-02-21T04:13:42;28.67;;;13.77;;
83513;SDS011;73447;53.262;10.424;2024-02-21T04:16:08;34.80;;;15.25;;
83513;SDS011;73447;53.262;10.424;2024-02-21T04:18:33;37.35;;;14.65;;
83513;SDS011;73447;53.262;10.424;2024-02-21T04:20:58;33.00;;;14.93;;
83513;SDS011;73447;53.262;10.424;2024-02-21T04:23:24;24.10;;;14.20;;
83513;SDS011;73447;53.262;10.424;2024-02-21T04:25:49;34.92;;;13.82;;
83513;SDS011;73447;53.262;10.424;2024-02-21T04:28:15;28.77;;;12.93;;
83513;SDS011;73447;53.262;10.424;2024-02-21T04:30:40;25.50;;;13.48;;
83513;SDS011;73447;53.262;10.424;2024-02-21T04:33:05;30.60;;;14.70;;
83513;SDS011;73447;53.262;10.424;2024-02-21T04:35:31;34.28;;;13.75;;
83513;SDS011;73447;53.262;10.424;2024-02-21T04:37:56;37.55;;;14.25;;
83513;SDS011;73447;53.262;10.424;2024-02-21T04:40:21;25.33;;;13.40;;
83513;SDS011;73447;53.262;10.424;2024-02-21T04:42:47;32.13;;;14.00;;
83513;SDS011;73447;53.262;10.424;2024-02-21T04:45:13;37.15;;;15.93;;
83513;SDS011;73447;53.262;10.424;2024-02-21T04:47:38;28.88;;;13.48;;
83513;SDS011;73447;53.262;10.424;2024-02-21T04:50:03;30.35;;;13.98;;
83513;SDS011;73447;53.262;10.424;2024-02-21T04:52:29;35.65;;;14.43;;
83513;SDS011;73447;53.262;10.424;2024-02-21T04:54:54;32.08;;;14.38;;
83513;SDS011;73447;53.262;10.424;2024-02-21T04:57:21;30.30;;;14.68;;
83513;SDS011;73447;53.262;10.424;2024-02-21T04:59:46;26.58;;;13.40;;
83513;SDS011;73447;53.262;10.424;2024-02-21T05:02:13;29.13;;;13.63;;
83513;SDS011;73447;53.262;10.424;2024-02-21T05:04:38;26.73;;;13.65;;
83513;SDS011;73447;53.262;10.424;2024-02-21T05:07:05;30.50;;;13.50;;
83513;SDS011;73447;53.262;10.424;2024-02-21T05:09:30;26.80;;;13.43;;
83513;SDS011;73447;53.262;10.424;2024-02-21T05:11:56;32.85;;;13.95;;
83513;SDS011;73447;53.262;10.424;2024-02-21T05:14:23;29.40;;;14.93;;
83513;SDS011;73447;53.262;10.424;2024-02-21T05:16:49;25.25;;;12.60;;
83513;SDS011;73447;53.262;10.424;2024-02-21T05:19:14;25.58;;;13.00;;
83513;SDS011;73447;53.262;10.424;2024-02-21T05:21:40;24.48;;;12.73;;
83513;SDS011;73447;53.262;10.424;2024-02-21T05:24:05;26.90;;;12.52;;
83513;SDS011;73447;53.262;10.424;2024-02-21T05:26:31;25.33;;;13.05;;
83513;SDS011;73447;53.262;10.424;2024-02-21T05:28:56;21.98;;;12.15;;
83513;SDS011;73447;53.262;10.424;2024-02-21T05:31:21;31.08;;;13.95;;
83513;SDS011;73447;53.262;10.424;2024-02-21T05:33:47;25.65;;;13.32;;
83513;SDS011;73447;53.262;10.424;2024-02-21T05:36:13;27.38;;;14.05;;
83513;SDS011;73447;53.262;10.424;2024-02-21T05:38:38;22.95;;;11.73;;
83513;SDS011;73447;53.262;10.424;2024-02-21T05:41:04;25.48;;;13.20;;
83513;SDS011;73447;53.262;10.424;2024-02-21T05:43:30;24.40;;;12.23;;
83513;SDS011;73447;53.262;10.424;2024-02-21T05:45:56;27.00;;;13.25;;
83513;SDS011;73447;53.262;10.424;2024-02-21T05:48:21;26.20;;;12.45;;
83513;SDS011;73447;53.262;10.424;2024-02-21T05:50:47;23.05;;;12.30;;
83513;SDS011;73447;53.262;10.424;2024-02-21T05:53:13;24.85;;;12.80;;
83513;SDS011;73447;53.262;10.424;2024-02-21T05:55:38;23.48;;;11.75;;
83513;SDS011;73447;53.262;10.424;2024-02-21T05:58:04;23.55;;;12.40;;
83513;SDS011;73447;53.262;10.424;2024-02-21T06:00:30;26.77;;;12.15;;
83513;SDS011;73447;53.262;10.424;2024-02-21T06:02:56;23.02;;;11.18;;
83513;SDS011;73447;53.262;10.424;2024-02-21T06:05:21;20.45;;;11.93;;
83513;SDS011;73447;53.262;10.424;2024-02-21T06:07:47;20.98;;;11.88;;
83513;SDS011;73447;53.262;10.424;2024-02-21T06:10:12;24.92;;;11.48;;
83513;SDS011;73447;53.262;10.424;2024-02-21T06:12:37;21.40;;;10.98;;
83513;SDS011;73447;53.262;10.424;2024-02-21T06:15:03;22.77;;;11.20;;
83513;SDS011;73447;53.262;10.424;2024-02-21T06:17:29;18.17;;;11.02;;
83513;SDS011;73447;53.262;10.424;2024-02-21T06:19:54;19.33;;;11.20;;
83513;SDS011;73447;53.262;10.424;2024-02-21T06:22:19;18.08;;;11.60;;
83513;SDS011;73447;53.262;10.424;2024-02-21T06:24:45;17.27;;;10.55;;
83513;SDS011;73447;53.262;10.424;2024-02-21T06:27:11;20.33;;;10.90;;
83513;SDS011;73447;53.262;10.424;2024-02-21T06:29:36;23.50;;;10.57;;
83513;SDS011;73447;53.262;10.424;2024-02-21T06:32:02;17.90;;;10.02;;
83513;SDS011;73447;53.262;10.424;2024-02-21T06:34:27;20.27;;;10.50;;
83513;SDS011;73447;53.262;10.424;2024-02-21T06:36:53;17.25;;;9.60;;
83513;SDS011;73447;53.262;10.424;2024-02-21T06:39:18;18.23;;;10.52;;
83513;SDS011;73447;53.262;10.424;2024-02-21T06:41:44;19.95;;;10.18;;
83513;SDS011;73447;53.262;10.424;2024-02-21T06:44:09;16.88;;;9.60;;
83513;SDS011;73447;53.262;10.424;2024-02-21T06:46:35;18.60;;;10.32;;
83513;SDS011;73447;53.262;10.424;2024-02-21T06:49:01;23.27;;;11.50;;
83513;SDS011;73447;53.262;10.424;2024-02-21T06:51:27;18.27;;;10.63;;
83513;SDS011;73447;53.262;10.424;2024-02-21T06:53:53;22.27;;;9.52;;
83513;SDS011;73447;53.262;10.424;2024-02-21T06:56:19;18.38;;;9.98;;
83513;SDS011;73447;53.262;10.424;2024-02-21T06:58:45;14.90;;;8.82;;
83513;SDS011;73447;53.262;10.424;2024-02-21T07:01:10;18.83;;;9.55;;
83513;SDS011;73447;53.262;10.424;2024-02-21T07:03:36;14.98;;;8.13;;
83513;SDS011;73447;53.262;10.424;2024-02-21T07:06:02;18.80;;;8.90;;
83513;SDS011;73447;53.262;10.424;2024-02-21T07:08:27;15.75;;;8.48;;
83513;SDS011;73447;53.262;10.424;2024-02-21T07:10:53;15.50;;;9.18;;
83513;SDS011;73447;53.262;10.424;2024-02-21T07:13:18;17.23;;;8.27;;
83513;SDS011;73447;53.262;10.424;2024-02-21T07:15:44;13.32;;;8.00;;
83513;SDS011;73447;53.262;10.424;2024-02-21T07:18:09;14.60;;;7.80;;
83513;SDS011;73447;53.262;10.424;2024-02-21T07:20:34;14.43;;;7.63;;
83513;SDS011;73447;53.262;10.424;2024-02-21T07:23:02;15.65;;;7.50;;
83513;SDS011;73447;53.262;10.424;2024-02-21T07:25:28;14.65;;;8.38;;
83513;SDS011;73447;53.262;10.424;2024-02-21T07:27:53;12.75;;;6.72;;
83513;SDS011;73447;53.262;10.424;2024-02-21T07:30:19;11.50;;;7.57;;
83513;SDS011;73447;53.262;10.424;2024-02-21T07:32:44;13.18;;;7.20;;
83513;SDS011;73447;53.262;10.424;2024-02-21T07:35:09;12.98;;;6.80;;
83513;SDS011;73447;53.262;10.424;2024-02-21T07:37:36;10.18;;;6.30;;
83513;SDS011;73447;53.262;10.424;2024-02-21T07:40:03;10.50;;;6.32;;
83513;SDS011;73447;53.262;10.424;2024-02-21T07:42:30;11.13;;;5.80;;
83513;SDS011;73447;53.262;10.424;2024-02-21T07:44:56;9.48;;;5.75;;
83513;SDS011;73447;53.262;10.424;2024-02-21T07:47:22;10.75;;;6.47;;
83513;SDS011;73447;53.262;10.424;2024-02-21T07:49:47;10.85;;;5.88;;
83513;SDS011;73447;53.262;10.424;2024-02-21T07:52:14;9.60;;;6.03;;
83513;SDS011;73447;53.262;10.424;2024-02-21T07:54:40;9.10;;;5.80;;
83513;SDS011;73447;53.262;10.424;2024-02-21T07:57:06;10.85;;;5.50;;
83513;SDS011;73447;53.262;10.424;2024-02-21T07:59:32;11.82;;;5.88;;
83513;SDS011;73447;53.262;10.424;2024-02-21T08:01:58;10.18;;;5.70;;
83513;SDS011;73447;53.262;10.424;2024-02-21T08:04:23;11.70;;;6.30;;
83513;SDS011;73447;53.262;10.424;2024-02-21T08:06:53;11.10;;;6.45;;
83513;SDS011;73447;53.262;10.424;2024-02-21T08:09:20;9.00;;;5.75;;
83513;SDS011;73447;53.262;10.424;2024-02-21T08:11:46;10.65;;;5.75;;
83513;SDS011;73447;53.262;10.424;2024-02-21T08:14:11;10.05;;;6.15;;
83513;SDS011;73447;53.262;10.424;2024-02-21T08:16:37;10.05;;;5.97;;
83513;SDS011;73447;53.262;10.424;2024-02-21T08:19:02;9.48;;;5.63;;
83513;SDS011;73447;53.262;10.424;2024-02-21T08:21:29;9.73;;;5.90;;
83513;SDS011;73447;53.262;10.424;2024-02-21T08:23:54;9.75;;;5.95;;
83513;SDS011;73447;53.262;10.424;2024-02-21T08:26:20;8.88;;;5.55;;
83513;SDS011;73447;53.262;10.424;2024-02-21T08:28:45;8.15;;;5.75;;
83513;SDS011;73447;53.262;10.424;2024-02-21T08:31:10;9.80;;;5.55;;
83513;SDS011;73447;53.262;10.424;2024-02-21T08:33:36;9.15;;;5.22;;
83513;SDS011;73447;53.262;10.424;2024-02-21T08:36:01;8.45;;;5.40;;
83513;SDS011;73447;53.262;10.424;2024-02-21T08:38:28;9.10;;;5.70;;
83513;SDS011;73447;53.262;10.424;2024-02-21T08:40:53;11.13;;;6.88;;
83513;SDS011;73447;53.262;10.424;2024-02-21T08:43:19;11.73;;;5.95;;
83513;SDS011;73447;53.262;10.424;2024-02-21T08:45:47;10.48;;;6.25;;
83513;SDS011;73447;53.262;10.424;2024-02-21T08:48:12;9.77;;;6.25;;
83513;SDS011;73447;53.262;10.424;2024-02-21T08:50:37;11.27;;;6.22;;
83513;SDS011;73447;53.262;10.424;2024-02-21T08:53:03;9.80;;;6.35;;
83513;SDS011;73447;53.262;10.424;2024-02-21T08:55:28;10.80;;;6.05;;
83513;SDS011;73447;53.262;10.424;2024-02-21T08:57:54;11.48;;;5.85;;
83513;SDS011;73447;53.262;10.424;2024-02-21T09:00:19;9.93;;;5.97;;
83513;SDS011;73447;53.262;10.424;2024-02-21T09:02:49;9.65;;;6.50;;
83513;SDS011;73447;53.262;10.424;2024-02-21T09:05:14;12.52;;;6.72;;
83513;SDS011;73447;53.262;10.424;2024-02-21T09:07:40;10.20;;;6.53;;
83513;SDS011;73447;53.262;10.424;2024-02-21T09:10:05;12.60;;;6.55;;
83513;SDS011;73447;53.262;10.424;2024-02-21T09:12:31;11.75;;;6.18;;
83513;SDS011;73447;53.262;10.424;2024-02-21T09:14:56;11.40;;;6.30;;
83513;SDS011;73447;53.262;10.424;2024-02-21T09:17:22;8.45;;;5.97;;
83513;SDS011;73447;53.262;10.424;2024-02-21T09:19:48;8.65;;;5.95;;
83513;SDS011;73447;53.262;10.424;2024-02-21T09:22:13;8.52;;;5.72;;
83513;SDS011;73447;53.262;10.424;2024-02-21T09:24:39;9.93;;;6.15;;
83513;SDS011;73447;53.262;10.424;2024-02-21T09:27:05;9.25;;;5.80;;
83513;SDS011;73447;53.262;10.424;2024-02-21T09:29:31;9.90;;;6.22;;
83513;SDS011;73447;53.262;10.424;2024-02-21T09:31:58;8.98;;;5.85;;
83513;SDS011;73447;53.262;10.424;2024-02-21T09:34:24;12.27;;;6.65;;
83513;SDS011;73447;53.262;10.424;2024-02-21T09:36:49;8.85;;;5.78;;
83513;SDS011;73447;53.262;10.424;2024-02-21T09:39:14;10.45;;;6.10;;
83513;SDS011;73447;53.262;10.424;2024-02-21T09:41:45;10.77;;;6.43;;
83513;SDS011;73447;53.262;10.424;2024-02-21T09:44:17;9.45;;;6.18;;
83513;SDS011;73447;53.262;10.424;2024-02-21T09:47:02;10.48;;;6.25;;
83513;SDS011;73447;53.262;10.424;2024-02-21T09:49:33;10.00;;;6.93;;
83513;SDS011;73447;53.262;10.424;2024-02-21T09:52:08;12.77;;;7.50;;
83513;SDS011;73447;53.262;10.424;2024-02-21T09:54:44;14.35;;;8.13;;
83513;SDS011;73447;53.262;10.424;2024-02-21T09:57:17;14.18;;;8.60;;
83513;SDS011;73447;53.262;10.424;2024-02-21T09:59:43;17.75;;;10.07;;
83513;SDS011;73447;53.262;10.424;2024-02-21T10:02:10;17.08;;;9.77;;
83513;SDS011;73447;53.262;10.424;2024-02-21T10:04:37;17.42;;;10.57;;
83513;SDS011;73447;53.262;10.424;2024-02-21T10:07:04;24.48;;;11.50;;
83513;SDS011;73447;53.262;10.424;2024-02-21T10:09:30;18.13;;;10.48;;
83513;SDS011;73447;53.262;10.424;2024-02-21T10:11:56;19.75;;;11.32;;
83513;SDS011;73447;53.262;10.424;2024-02-21T10:14:32;18.98;;;11.55;;
83513;SDS011;73447;53.262;10.424;2024-02-21T10:16:58;19.42;;;11.18;;
83513;SDS011;73447;53.262;10.424;2024-02-21T10:19:26;20.60;;;12.25;;
83513;SDS011;73447;53.262;10.424;2024-02-21T10:22:01;21.23;;;11.75;;
83513;SDS011;73447;53.262;10.424;2024-02-21T10:24:27;23.02;;;12.32;;
83513;SDS011;73447;53.262;10.424;2024-02-21T10:27:01;22.10;;;11.15;;
83513;SDS011;73447;53.262;10.424;2024-02-21T10:29:28;21.25;;;10.52;;
83513;SDS011;73447;53.262;10.424;2024-02-21T10:32:30;25.63;;;11.18;;
83513;SDS011;73447;53.262;10.424;2024-02-21T10:35:00;19.75;;;10.75;;
83513;SDS011;73447;53.262;10.424;2024-02-21T10:37:31;24.67;;;11.40;;
83513;SDS011;73447;53.262;10.424;2024-02-21T10:39:57;18.02;;;10.50;;
83513;SDS011;73447;53.262;10.424;2024-02-21T10:42:22;19.63;;;11.13;;
83513;SDS011;73447;53.262;10.424;2024-02-21T10:44:53;17.63;;;9.85;;
83513;SDS011;73447;53.262;10.424;2024-02-21T10:47:23;18.50;;;11.07;;
83513;SDS011;73447;53.262;10.424;2024-02-21T10:49:58;21.10;;;10.27;;
83513;SDS011;73447;53.262;10.424;2024-02-21T10:55:17;19.60;;;9.98;;
83513;SDS011;73447;53.262;10.424;2024-02-21T10:57:48;17.90;;;9.65;;
83513;SDS011;73447;53.262;10.424;2024-02-21T11:00:15;16.92;;;8.48;;
83513;SDS011;73447;53.262;10.424;2024-02-21T11:02:43;17.95;;;7.78;;
83513;SDS011;73447;53.262;10.424;2024-02-21T11:05:09;14.80;;;7.85;;
83513;SDS011;73447;53.262;10.424;2024-02-21T11:07:37;14.30;;;6.97;;
83513;SDS011;73447;53.262;10.424;2024-02-21T11:10:03;14.23;;;7.68;;
83513;SDS011;73447;53.262;10.424;2024-02-21T11:12:32;13.88;;;7.55;;
83513;SDS011;73447;53.262;10.424;2024-02-21T11:15:07;13.07;;;7.28;;
83513;SDS011;73447;53.262;10.424;2024-02-21T11:17:33;17.13;;;7.15;;
83513;SDS011;73447;53.262;10.424;2024-02-21T11:19:59;14.30;;;8.15;;
83513;SDS011;73447;53.262;10.424;2024-02-21T11:22:40;18.15;;;8.52;;
83513;SDS011;73447;53.262;10.424;2024-02-21T11:25:06;14.80;;;8.40;;
83513;SDS011;73447;53.262;10.424;2024-02-21T11:27:36;17.15;;;7.78;;
83513;SDS011;73447;53.262;10.424;2024-02-21T11:30:03;13.40;;;7.85;;
83513;SDS011;73447;53.262;10.424;2024-02-21T11:32:30;15.18;;;8.65;;
83513;SDS011;73447;53.262;10.424;2024-02-21T11:34:59;18.90;;;8.63;;
83513;SDS011;73447;53.262;10.424;2024-02-21T11:37:33;18.92;;;8.40;;
83513;SDS011;73447;53.262;10.424;2024-02-21T11:40:02;17.58;;;8.80;;
83513;SDS011;73447;53.262;10.424;2024-02-21T11:42:28;17.83;;;8.88;;
83513;SDS011;73447;53.262;10.424;2024-02-21T11:44:55;21.00;;;9.27;;
83513;SDS011;73447;53.262;10.424;2024-02-21T11:47:22;17.52;;;9.52;;
83513;SDS011;73447;53.262;10.424;2024-02-21T11:49:48;17.30;;;9.07;;
83513;SDS011;73447;53.262;10.424;2024-02-21T11:52:26;18.60;;;9.63;;
83513;SDS011;73447;53.262;10.424;2024-02-21T11:54:52;20.80;;;9.97;;
83513;SDS011;73447;53.262;10.424;2024-02-21T11:57:19;17.15;;;9.98;;
83513;SDS011;73447;53.262;10.424;2024-02-21T11:59:45;18.42;;;10.45;;
83513;SDS011;73447;53.262;10.424;2024-02-21T12:02:11;19.63;;;10.40;;
83513;SDS011;73447;53.262;10.424;2024-02-21T12:04:37;17.60;;;10.32;;
83513;SDS011;73447;53.262;10.424;2024-02-21T12:07:03;19.27;;;11.65;;
83513;SDS011;73447;53.262;10.424;2024-02-21T12:09:29;23.02;;;12.32;;
83513;SDS011;73447;53.262;10.424;2024-02-21T12:12:02;20.15;;;11.25;;
83513;SDS011;73447;53.262;10.424;2024-02-21T12:14:29;23.77;;;11.95;;
83513;SDS011;73447;53.262;10.424;2024-02-21T12:16:56;22.40;;;11.82;;
83513;SDS011;73447;53.262;10.424;2024-02-21T12:19:21;25.70;;;12.20;;
83513;SDS011;73447;53.262;10.424;2024-02-21T12:21:48;21.23;;;12.55;;
83513;SDS011;73447;53.262;10.424;2024-02-21T12:24:21;23.92;;;12.88;;
83513;SDS011;73447;53.262;10.424;2024-02-21T12:26:48;18.35;;;11.90;;
83513;SDS011;73447;53.262;10.424;2024-02-21T12:29:14;23.60;;;12.18;;
83513;SDS011;73447;53.262;10.424;2024-02-21T12:31:39;24.35;;;12.05;;
83513;SDS011;73447;53.262;10.424;2024-02-21T12:34:05;19.75;;;12.27;;
83513;SDS011;73447;53.262;10.424;2024-02-21T12:36:31;20.70;;;12.52;;
83513;SDS011;73447;53.262;10.424;2024-02-21T12:38:57;25.45;;;11.68;;
83513;SDS011;73447;53.262;10.424;2024-02-21T12:41:22;17.70;;;11.52;;
83513;SDS011;73447;53.262;10.424;2024-02-21T12:43:50;18.67;;;11.98;;
83513;SDS011;73447;53.262;10.424;2024-02-21T12:46:16;19.17;;;11.35;;
83513;SDS011;73447;53.262;10.424;2024-02-21T12:48:41;17.92;;;11.15;;
83513;SDS011;73447;53.262;10.424;2024-02-21T12:51:07;17.85;;;10.43;;
83513;SDS011;73447;53.262;10.424;2024-02-21T12:53:33;20.92;;;9.98;;
83513;SDS011;73447;53.262;10.424;2024-02-21T12:55:58;21.40;;;10.82;;
83513;SDS011;73447;53.262;10.424;2024-02-21T12:58:24;18.70;;;10.25;;
83513;SDS011;73447;53.262;10.424;2024-02-21T13:00:49;17.95;;;10.07;;
83513;SDS011;73447;53.262;10.424;2024-02-21T13:03:15;17.45;;;9.73;;
83513;SDS011;73447;53.262;10.424;2024-02-21T13:05:40;13.75;;;9.13;;
83513;SDS011;73447;53.262;10.424;2024-02-21T13:08:06;19.25;;;9.15;;
83513;SDS011;73447;53.262;10.424;2024-02-21T13:10:32;18.08;;;9.73;;
83513;SDS011;73447;53.262;10.424;2024-02-21T13:12:59;13.95;;;9.30;;
83513;SDS011;73447;53.262;10.424;2024-02-21T13:15:25;15.38;;;9.73;;
83513;SDS011;73447;53.262;10.424;2024-02-21T13:17:51;16.63;;;8.65;;
83513;SDS011;73447;53.262;10.424;2024-02-21T13:20:16;18.02;;;9.65;;
83513;SDS011;73447;53.262;10.424;2024-02-21T13:22:41;15.18;;;8.43;;
83513;SDS011;73447;53.262;10.424;2024-02-21T13:25:07;21.45;;;8.40;;
83513;SDS011;73447;53.262;10.424;2024-02-21T13:27:33;14.80;;;8.70;;
83513;SDS011;73447;53.262;10.424;2024-02-21T13:29:59;13.20;;;8.32;;
83513;SDS011;73447;53.262;10.424;2024-02-21T13:32:26;15.38;;;7.65;;
83513;SDS011;73447;53.262;10.424;2024-02-21T13:34:52;14.13;;;8.27;;
83513;SDS011;73447;53.262;10.424;2024-02-21T13:37:17;11.90;;;7.50;;
83513;SDS011;73447;53.262;10.424;2024-02-21T13:39:43;16.10;;;8.38;;
83513;SDS011;73447;53.262;10.424;2024-02-21T13:42:08;16.50;;;7.80;;
83513;SDS011;73447;53.262;10.424;2024-02-21T13:44:34;16.05;;;7.90;;
83513;SDS011;73447;53.262;10.424;2024-02-21T13:46:59;13.27;;;7.70;;
83513;SDS011;73447;53.262;10.424;2024-02-21T13:49:25;17.00;;;8.13;;
83513;SDS011;73447;53.262;10.424;2024-02-21T13:51:50;12.70;;;7.25;;
83513;SDS011;73447;53.262;10.424;2024-02-21T13:54:16;12.63;;;6.75;;
83513;SDS011;73447;53.262;10.424;2024-02-21T13:56:44;14.90;;;7.15;;
83513;SDS011;73447;53.262;10.424;2024-02-21T13:59:11;13.93;;;6.70;;
83513;SDS011;73447;53.262;10.424;2024-02-21T14:01:38;12.90;;;5.97;;
83513;SDS011;73447;53.262;10.424;2024-02-21T14:04:03;11.85;;;6.40;;
83513;SDS011;73447;53.262;10.424;2024-02-21T14:06:29;13.85;;;6.95;;
83513;SDS011;73447;53.262;10.424;2024-02-21T14:08:54;9.45;;;6.20;;
83513;SDS011;73447;53.262;10.424;2024-02-21T14:11:20;10.63;;;6.10;;
83513;SDS011;73447;53.262;10.424;2024-02-21T14:13:45;12.95;;;6.30;;